sensor_id;sensor_type;location;lat;lon;timestamp;P1;durP1;ratioP1;P2;durP2;ratioP2
76123;SDS011;65173;48.066;20.976;2023-02-28T00:00:38;8.30;;;3.73;;
76123;SDS011;65173;48.066;20.976;2023-02-28T00:03:41;7.60;;;3.70;;
76123;SDS011;65173;48.066;20.976;2023-02-28T00:06:44;8.98;;;3.67;;
76123;SDS011;65173;48.066;20.976;2023-02-28T00:09:47;8.93;;;4.50;;
76123;SDS011;65173;48.066;20.976;2023-02-28T00:12:56;9.00;;;4.15;;
76123;SDS011;65173;48.066;20.976;2023-02-28T00:16:03;11.23;;;4.38;;
76123;SDS011;65173;48.066;20.976;2023-02-28T00:19:07;10.15;;;3.88;;
76123;SDS011;65173;48.066;20.976;2023-02-28T00:22:11;8.03;;;3.83;;
76123;SDS011;65173;48.066;20.976;2023-02-28T00:25:14;7.63;;;3.45;;
76123;SDS011;65173;48.066;20.976;2023-02-28T00:28:19;9.07;;;3.38;;
76123;SDS011;65173;48.066;20.976;2023-02-28T00:31:22;10.40;;;4.87;;
76123;SDS011;65173;48.066;20.976;2023-02-28T00:34:25;10.95;;;5.28;;
76123;SDS011;65173;48.066;20.976;2023-02-28T00:37:28;9.80;;;4.65;;
76123;SDS011;65173;48.066;20.976;2023-02-28T00:40:31;9.20;;;4.25;;
76123;SDS011;65173;48.066;20.976;2023-02-28T00:43:35;9.07;;;3.63;;
76123;SDS011;65173;48.066;20.976;2023-02-28T00:46:40;8.00;;;3.97;;
76123;SDS011;65173;48.066;20.976;2023-02-28T00:49:43;9.48;;;4.28;;
76123;SDS011;65173;48.066;20.976;2023-02-28T00:52:46;11.40;;;4.47;;
76123;SDS011;65173;48.066;20.976;2023-02-28T00:55:50;10.00;;;4.22;;
76123;SDS011;65173;48.066;20.976;2023-02-28T00:58:53;8.50;;;4.70;;
76123;SDS011;65173;48.066;20.976;2023-02-28T01:01:56;9.37;;;4.53;;
76123;SDS011;65173;48.066;20.976;2023-02-28T01:04:59;9.25;;;4.25;;
76123;SDS011;65173;48.066;20.976;2023-02-28T01:08:04;10.23;;;4.57;;
76123;SDS011;65173;48.066;20.976;2023-02-28T01:11:09;9.25;;;3.97;;
76123;SDS011;65173;48.066;20.976;2023-02-28T01:14:15;8.63;;;4.03;;
76123;SDS011;65173;48.066;20.976;2023-02-28T01:17:20;11.77;;;5.50;;
76123;SDS011;65173;48.066;20.976;2023-02-28T01:20:23;9.13;;;4.80;;
76123;SDS011;65173;48.066;20.976;2023-02-28T01:23:26;11.60;;;5.30;;
76123;SDS011;65173;48.066;20.976;2023-02-28T01:26:29;11.43;;;5.18;;
76123;SDS011;65173;48.066;20.976;2023-02-28T01:29:32;10.80;;;5.03;;
76123;SDS011;65173;48.066;20.976;2023-02-28T01:32:35;8.80;;;4.73;;
76123;SDS011;65173;48.066;20.976;2023-02-28T01:35:39;11.32;;;3.20;;
76123;SDS011;65173;48.066;20.976;2023-02-28T01:38:43;9.60;;;4.53;;
76123;SDS011;65173;48.066;20.976;2023-02-28T01:41:47;9.57;;;4.10;;
76123;SDS011;65173;48.066;20.976;2023-02-28T01:45:01;7.55;;;3.75;;
76123;SDS011;65173;48.066;20.976;2023-02-28T01:48:21;8.23;;;3.67;;
76123;SDS011;65173;48.066;20.976;2023-02-28T01:51:34;6.28;;;2.97;;
76123;SDS011;65173;48.066;20.976;2023-02-28T01:54:39;10.10;;;3.37;;
76123;SDS011;65173;48.066;20.976;2023-02-28T01:57:50;6.95;;;3.58;;
76123;SDS011;65173;48.066;20.976;2023-02-28T02:00:56;9.57;;;3.38;;
76123;SDS011;65173;48.066;20.976;2023-02-28T02:04:01;11.43;;;4.67;;
76123;SDS011;65173;48.066;20.976;2023-02-28T02:07:05;6.93;;;3.50;;
76123;SDS011;65173;48.066;20.976;2023-02-28T02:10:11;11.07;;;4.00;;
76123;SDS011;65173;48.066;20.976;2023-02-28T02:16:35;8.15;;;3.38;;
76123;SDS011;65173;48.066;20.976;2023-02-28T02:36:20;6.43;;;3.70;;
76123;SDS011;65173;48.066;20.976;2023-02-28T02:39:31;9.38;;;3.95;;
76123;SDS011;65173;48.066;20.976;2023-02-28T02:45:56;6.65;;;3.53;;
76123;SDS011;65173;48.066;20.976;2023-02-28T02:49:06;6.80;;;3.33;;
76123;SDS011;65173;48.066;20.976;2023-02-28T02:52:16;8.20;;;3.50;;
76123;SDS011;65173;48.066;20.976;2023-02-28T02:55:23;8.15;;;3.88;;
76123;SDS011;65173;48.066;20.976;2023-02-28T02:58:28;10.17;;;3.67;;
76123;SDS011;65173;48.066;20.976;2023-02-28T03:01:37;9.23;;;4.03;;
76123;SDS011;65173;48.066;20.976;2023-02-28T03:04:46;8.27;;;3.75;;
76123;SDS011;65173;48.066;20.976;2023-02-28T03:07:56;6.37;;;3.70;;
76123;SDS011;65173;48.066;20.976;2023-02-28T03:10:59;11.82;;;4.28;;
76123;SDS011;65173;48.066;20.976;2023-02-28T03:17:30;7.55;;;3.95;;
76123;SDS011;65173;48.066;20.976;2023-02-28T03:20:47;9.00;;;4.05;;
76123;SDS011;65173;48.066;20.976;2023-02-28T03:24:07;7.95;;;3.13;;
76123;SDS011;65173;48.066;20.976;2023-02-28T03:27:37;9.55;;;3.72;;
76123;SDS011;65173;48.066;20.976;2023-02-28T03:34:33;7.35;;;3.50;;
76123;SDS011;65173;48.066;20.976;2023-02-28T03:37:31;7.22;;;3.50;;
76123;SDS011;65173;48.066;20.976;2023-02-28T03:40:38;6.93;;;3.40;;
76123;SDS011;65173;48.066;20.976;2023-02-28T03:43:48;7.47;;;3.80;;
76123;SDS011;65173;48.066;20.976;2023-02-28T03:46:59;7.53;;;3.78;;
76123;SDS011;65173;48.066;20.976;2023-02-28T03:50:08;6.22;;;2.97;;
76123;SDS011;65173;48.066;20.976;2023-02-28T03:53:18;8.10;;;3.30;;
76123;SDS011;65173;48.066;20.976;2023-02-28T03:56:28;7.35;;;3.55;;
76123;SDS011;65173;48.066;20.976;2023-02-28T03:59:39;7.25;;;3.22;;
76123;SDS011;65173;48.066;20.976;2023-02-28T04:02:46;9.13;;;2.93;;
76123;SDS011;65173;48.066;20.976;2023-02-28T04:05:54;9.40;;;3.65;;
76123;SDS011;65173;48.066;20.976;2023-02-28T04:08:59;5.20;;;2.95;;
76123;SDS011;65173;48.066;20.976;2023-02-28T04:12:03;6.57;;;3.30;;
76123;SDS011;65173;48.066;20.976;2023-02-28T04:15:07;10.27;;;3.60;;
76123;SDS011;65173;48.066;20.976;2023-02-28T04:18:10;7.30;;;3.42;;
76123;SDS011;65173;48.066;20.976;2023-02-28T04:21:13;7.50;;;3.88;;
76123;SDS011;65173;48.066;20.976;2023-02-28T04:24:17;5.03;;;2.55;;
76123;SDS011;65173;48.066;20.976;2023-02-28T04:27:22;9.15;;;3.10;;
76123;SDS011;65173;48.066;20.976;2023-02-28T04:30:24;9.27;;;4.15;;
76123;SDS011;65173;48.066;20.976;2023-02-28T04:33:28;8.87;;;3.63;;
76123;SDS011;65173;48.066;20.976;2023-02-28T04:36:31;7.68;;;3.65;;
76123;SDS011;65173;48.066;20.976;2023-02-28T04:39:35;9.48;;;3.22;;
76123;SDS011;65173;48.066;20.976;2023-02-28T04:42:38;4.47;;;2.47;;
76123;SDS011;65173;48.066;20.976;2023-02-28T04:45:41;7.07;;;3.55;;
76123;SDS011;65173;48.066;20.976;2023-02-28T04:48:45;7.65;;;3.67;;
76123;SDS011;65173;48.066;20.976;2023-02-28T04:51:48;9.00;;;3.90;;
76123;SDS011;65173;48.066;20.976;2023-02-28T04:54:52;7.32;;;3.35;;
76123;SDS011;65173;48.066;20.976;2023-02-28T04:57:55;7.95;;;3.45;;
76123;SDS011;65173;48.066;20.976;2023-02-28T05:01:01;5.65;;;3.15;;
76123;SDS011;65173;48.066;20.976;2023-02-28T05:04:05;5.07;;;2.40;;
76123;SDS011;65173;48.066;20.976;2023-02-28T05:07:08;8.93;;;4.07;;
76123;SDS011;65173;48.066;20.976;2023-02-28T05:10:12;7.95;;;3.75;;
76123;SDS011;65173;48.066;20.976;2023-02-28T05:13:15;6.97;;;2.80;;
76123;SDS011;65173;48.066;20.976;2023-02-28T05:16:18;7.18;;;3.53;;
76123;SDS011;65173;48.066;20.976;2023-02-28T05:19:22;9.85;;;3.80;;
76123;SDS011;65173;48.066;20.976;2023-02-28T05:22:25;7.68;;;3.60;;
76123;SDS011;65173;48.066;20.976;2023-02-28T05:25:27;9.90;;;4.18;;
76123;SDS011;65173;48.066;20.976;2023-02-28T05:28:30;8.50;;;4.07;;
76123;SDS011;65173;48.066;20.976;2023-02-28T05:31:33;10.77;;;4.10;;
76123;SDS011;65173;48.066;20.976;2023-02-28T05:34:37;7.47;;;3.83;;
76123;SDS011;65173;48.066;20.976;2023-02-28T05:37:40;8.82;;;4.13;;
76123;SDS011;65173;48.066;20.976;2023-02-28T05:40:44;10.55;;;4.47;;
76123;SDS011;65173;48.066;20.976;2023-02-28T05:43:47;10.93;;;4.10;;
76123;SDS011;65173;48.066;20.976;2023-02-28T05:46:50;7.97;;;4.15;;
76123;SDS011;65173;48.066;20.976;2023-02-28T05:49:53;8.10;;;4.43;;
76123;SDS011;65173;48.066;20.976;2023-02-28T05:52:56;8.55;;;4.68;;
76123;SDS011;65173;48.066;20.976;2023-02-28T05:55:59;9.98;;;5.25;;
76123;SDS011;65173;48.066;20.976;2023-02-28T05:59:02;10.27;;;5.07;;
76123;SDS011;65173;48.066;20.976;2023-02-28T06:02:12;14.57;;;5.18;;
76123;SDS011;65173;48.066;20.976;2023-02-28T06:05:17;11.43;;;5.37;;
76123;SDS011;65173;48.066;20.976;2023-02-28T06:08:20;9.30;;;4.15;;
76123;SDS011;65173;48.066;20.976;2023-02-28T06:11:23;8.48;;;5.03;;
76123;SDS011;65173;48.066;20.976;2023-02-28T06:14:30;11.60;;;5.20;;
76123;SDS011;65173;48.066;20.976;2023-02-28T06:17:33;8.52;;;4.70;;
76123;SDS011;65173;48.066;20.976;2023-02-28T06:20:36;6.40;;;3.72;;
76123;SDS011;65173;48.066;20.976;2023-02-28T06:23:38;8.48;;;4.20;;
76123;SDS011;65173;48.066;20.976;2023-02-28T06:26:41;12.10;;;4.65;;
76123;SDS011;65173;48.066;20.976;2023-02-28T06:29:44;9.10;;;3.75;;
76123;SDS011;65173;48.066;20.976;2023-02-28T06:32:47;11.20;;;4.07;;
76123;SDS011;65173;48.066;20.976;2023-02-28T06:35:51;8.17;;;4.63;;
76123;SDS011;65173;48.066;20.976;2023-02-28T06:38:54;14.15;;;5.03;;
76123;SDS011;65173;48.066;20.976;2023-02-28T06:41:58;12.50;;;5.25;;
76123;SDS011;65173;48.066;20.976;2023-02-28T06:45:01;10.13;;;5.60;;
76123;SDS011;65173;48.066;20.976;2023-02-28T06:48:05;9.23;;;4.30;;
76123;SDS011;65173;48.066;20.976;2023-02-28T06:51:13;10.38;;;4.45;;
76123;SDS011;65173;48.066;20.976;2023-02-28T06:54:18;10.43;;;4.65;;
76123;SDS011;65173;48.066;20.976;2023-02-28T06:57:21;9.20;;;5.03;;
76123;SDS011;65173;48.066;20.976;2023-02-28T07:00:24;10.43;;;3.40;;
76123;SDS011;65173;48.066;20.976;2023-02-28T07:03:27;10.77;;;3.90;;
76123;SDS011;65173;48.066;20.976;2023-02-28T07:06:31;12.47;;;3.90;;
76123;SDS011;65173;48.066;20.976;2023-02-28T07:09:33;10.00;;;5.05;;
76123;SDS011;65173;48.066;20.976;2023-02-28T07:12:37;12.50;;;4.63;;
76123;SDS011;65173;48.066;20.976;2023-02-28T07:15:40;10.60;;;5.10;;
76123;SDS011;65173;48.066;20.976;2023-02-28T07:18:45;10.07;;;5.43;;
76123;SDS011;65173;48.066;20.976;2023-02-28T07:21:48;12.90;;;5.20;;
76123;SDS011;65173;48.066;20.976;2023-02-28T07:24:51;9.80;;;5.07;;
76123;SDS011;65173;48.066;20.976;2023-02-28T07:27:55;10.88;;;4.90;;
76123;SDS011;65173;48.066;20.976;2023-02-28T07:31:05;15.73;;;6.65;;
76123;SDS011;65173;48.066;20.976;2023-02-28T07:34:09;12.10;;;5.63;;
76123;SDS011;65173;48.066;20.976;2023-02-28T07:37:12;8.60;;;4.57;;
76123;SDS011;65173;48.066;20.976;2023-02-28T07:40:15;10.63;;;4.63;;
76123;SDS011;65173;48.066;20.976;2023-02-28T07:43:18;11.93;;;5.28;;
76123;SDS011;65173;48.066;20.976;2023-02-28T07:46:21;8.70;;;5.00;;
76123;SDS011;65173;48.066;20.976;2023-02-28T07:49:24;8.73;;;4.25;;
76123;SDS011;65173;48.066;20.976;2023-02-28T07:52:27;9.45;;;4.20;;
76123;SDS011;65173;48.066;20.976;2023-02-28T07:55:30;9.35;;;4.80;;
76123;SDS011;65173;48.066;20.976;2023-02-28T07:58:32;10.20;;;4.38;;
76123;SDS011;65173;48.066;20.976;2023-02-28T08:01:35;7.45;;;3.80;;
76123;SDS011;65173;48.066;20.976;2023-02-28T08:04:38;9.23;;;4.35;;
76123;SDS011;65173;48.066;20.976;2023-02-28T08:07:41;7.27;;;4.23;;
76123;SDS011;65173;48.066;20.976;2023-02-28T08:10:44;6.18;;;3.67;;
76123;SDS011;65173;48.066;20.976;2023-02-28T08:13:47;6.70;;;3.08;;
76123;SDS011;65173;48.066;20.976;2023-02-28T08:16:50;8.60;;;4.17;;
76123;SDS011;65173;48.066;20.976;2023-02-28T08:19:53;7.90;;;3.88;;
76123;SDS011;65173;48.066;20.976;2023-02-28T08:22:57;6.68;;;4.03;;
76123;SDS011;65173;48.066;20.976;2023-02-28T08:26:00;7.28;;;3.65;;
76123;SDS011;65173;48.066;20.976;2023-02-28T08:29:02;7.28;;;3.65;;
76123;SDS011;65173;48.066;20.976;2023-02-28T08:32:06;7.70;;;3.75;;
76123;SDS011;65173;48.066;20.976;2023-02-28T08:35:24;6.78;;;3.72;;
76123;SDS011;65173;48.066;20.976;2023-02-28T08:38:27;8.23;;;4.77;;
76123;SDS011;65173;48.066;20.976;2023-02-28T08:41:30;6.85;;;3.90;;
76123;SDS011;65173;48.066;20.976;2023-02-28T08:44:33;6.78;;;3.13;;
76123;SDS011;65173;48.066;20.976;2023-02-28T08:47:36;6.27;;;3.20;;
76123;SDS011;65173;48.066;20.976;2023-02-28T08:50:39;5.05;;;3.25;;
76123;SDS011;65173;48.066;20.976;2023-02-28T08:53:42;6.65;;;3.80;;
76123;SDS011;65173;48.066;20.976;2023-02-28T08:56:45;6.05;;;3.42;;
76123;SDS011;65173;48.066;20.976;2023-02-28T08:59:49;6.53;;;4.22;;
76123;SDS011;65173;48.066;20.976;2023-02-28T09:02:52;6.45;;;3.90;;
76123;SDS011;65173;48.066;20.976;2023-02-28T09:05:56;7.15;;;3.60;;
76123;SDS011;65173;48.066;20.976;2023-02-28T09:09:01;6.70;;;4.07;;
76123;SDS011;65173;48.066;20.976;2023-02-28T09:12:06;12.85;;;5.05;;
76123;SDS011;65173;48.066;20.976;2023-02-28T09:15:09;6.90;;;4.25;;
76123;SDS011;65173;48.066;20.976;2023-02-28T09:18:13;7.03;;;3.23;;
76123;SDS011;65173;48.066;20.976;2023-02-28T09:21:17;4.85;;;2.67;;
76123;SDS011;65173;48.066;20.976;2023-02-28T09:24:21;3.80;;;2.53;;
76123;SDS011;65173;48.066;20.976;2023-02-28T09:27:25;7.75;;;3.28;;
76123;SDS011;65173;48.066;20.976;2023-02-28T09:30:30;6.68;;;3.20;;
76123;SDS011;65173;48.066;20.976;2023-02-28T09:33:34;9.60;;;4.25;;
76123;SDS011;65173;48.066;20.976;2023-02-28T09:36:38;6.55;;;3.17;;
76123;SDS011;65173;48.066;20.976;2023-02-28T09:39:47;5.97;;;2.93;;
76123;SDS011;65173;48.066;20.976;2023-02-28T09:42:50;5.60;;;3.08;;
76123;SDS011;65173;48.066;20.976;2023-02-28T09:49:25;6.13;;;3.43;;
76123;SDS011;65173;48.066;20.976;2023-02-28T09:52:35;5.45;;;3.00;;
76123;SDS011;65173;48.066;20.976;2023-02-28T09:55:39;4.38;;;2.80;;
76123;SDS011;65173;48.066;20.976;2023-02-28T09:58:55;5.38;;;2.85;;
76123;SDS011;65173;48.066;20.976;2023-02-28T10:12:06;6.90;;;3.53;;
76123;SDS011;65173;48.066;20.976;2023-02-28T10:15:14;6.57;;;3.60;;
76123;SDS011;65173;48.066;20.976;2023-02-28T10:18:21;6.95;;;3.55;;
76123;SDS011;65173;48.066;20.976;2023-02-28T10:21:34;6.13;;;3.40;;
76123;SDS011;65173;48.066;20.976;2023-02-28T10:27:53;6.80;;;2.95;;
76123;SDS011;65173;48.066;20.976;2023-02-28T10:31:03;5.72;;;3.33;;
76123;SDS011;65173;48.066;20.976;2023-02-28T10:34:07;7.20;;;3.72;;
76123;SDS011;65173;48.066;20.976;2023-02-28T10:37:14;6.78;;;3.92;;
76123;SDS011;65173;48.066;20.976;2023-02-28T10:40:25;6.25;;;3.80;;
76123;SDS011;65173;48.066;20.976;2023-02-28T10:43:35;6.77;;;3.70;;
76123;SDS011;65173;48.066;20.976;2023-02-28T10:46:40;5.68;;;3.40;;
76123;SDS011;65173;48.066;20.976;2023-02-28T10:49:48;5.50;;;3.47;;
76123;SDS011;65173;48.066;20.976;2023-02-28T10:52:52;7.27;;;3.97;;
76123;SDS011;65173;48.066;20.976;2023-02-28T10:59:26;6.38;;;3.60;;
76123;SDS011;65173;48.066;20.976;2023-02-28T11:02:35;5.72;;;4.13;;
76123;SDS011;65173;48.066;20.976;2023-02-28T11:05:40;7.00;;;3.78;;
76123;SDS011;65173;48.066;20.976;2023-02-28T11:08:45;13.05;;;5.97;;
76123;SDS011;65173;48.066;20.976;2023-02-28T11:11:51;5.38;;;3.70;;
76123;SDS011;65173;48.066;20.976;2023-02-28T11:14:59;6.43;;;4.03;;
76123;SDS011;65173;48.066;20.976;2023-02-28T11:21:30;6.53;;;4.10;;
76123;SDS011;65173;48.066;20.976;2023-02-28T11:24:45;5.83;;;3.93;;
76123;SDS011;65173;48.066;20.976;2023-02-28T11:27:53;6.00;;;3.47;;
76123;SDS011;65173;48.066;20.976;2023-02-28T11:34:24;6.93;;;4.25;;
76123;SDS011;65173;48.066;20.976;2023-02-28T11:37:29;5.00;;;3.40;;
76123;SDS011;65173;48.066;20.976;2023-02-28T11:43:53;5.93;;;3.58;;
76123;SDS011;65173;48.066;20.976;2023-02-28T11:57:36;6.50;;;3.90;;
76123;SDS011;65173;48.066;20.976;2023-02-28T12:08:04;5.13;;;3.83;;
76123;SDS011;65173;48.066;20.976;2023-02-28T12:14:50;12.85;;;5.60;;
76123;SDS011;65173;48.066;20.976;2023-02-28T12:27:52;7.63;;;3.85;;
76123;SDS011;65173;48.066;20.976;2023-02-28T12:30:59;7.03;;;4.03;;
76123;SDS011;65173;48.066;20.976;2023-02-28T12:34:19;7.10;;;3.80;;
76123;SDS011;65173;48.066;20.976;2023-02-28T12:37:28;7.78;;;4.43;;
76123;SDS011;65173;48.066;20.976;2023-02-28T12:40:43;6.35;;;4.20;;
76123;SDS011;65173;48.066;20.976;2023-02-28T12:43:51;6.63;;;4.13;;
76123;SDS011;65173;48.066;20.976;2023-02-28T12:47:02;4.85;;;3.53;;
76123;SDS011;65173;48.066;20.976;2023-02-28T12:50:10;6.57;;;4.13;;
76123;SDS011;65173;48.066;20.976;2023-02-28T12:57:13;10.70;;;5.53;;
76123;SDS011;65173;48.066;20.976;2023-02-28T13:00:53;8.60;;;4.70;;
76123;SDS011;65173;48.066;20.976;2023-02-28T13:04:26;7.47;;;4.20;;
76123;SDS011;65173;48.066;20.976;2023-02-28T13:11:58;7.93;;;4.03;;
76123;SDS011;65173;48.066;20.976;2023-02-28T13:18:27;12.45;;;5.85;;
76123;SDS011;65173;48.066;20.976;2023-02-28T13:21:41;7.78;;;4.20;;
76123;SDS011;65173;48.066;20.976;2023-02-28T13:24:48;7.32;;;4.15;;
76123;SDS011;65173;48.066;20.976;2023-02-28T13:27:58;5.90;;;4.03;;
76123;SDS011;65173;48.066;20.976;2023-02-28T13:31:06;6.68;;;3.90;;
76123;SDS011;65173;48.066;20.976;2023-02-28T13:34:13;6.80;;;4.18;;
76123;SDS011;65173;48.066;20.976;2023-02-28T13:40:31;6.53;;;4.43;;
76123;SDS011;65173;48.066;20.976;2023-02-28T13:50:21;9.73;;;4.50;;
76123;SDS011;65173;48.066;20.976;2023-02-28T13:53:47;7.85;;;4.43;;
76123;SDS011;65173;48.066;20.976;2023-02-28T13:57:21;9.35;;;4.93;;
76123;SDS011;65173;48.066;20.976;2023-02-28T14:07:49;8.30;;;4.00;;
76123;SDS011;65173;48.066;20.976;2023-02-28T14:11:06;7.87;;;4.33;;
76123;SDS011;65173;48.066;20.976;2023-02-28T14:17:39;8.93;;;4.38;;
76123;SDS011;65173;48.066;20.976;2023-02-28T14:20:43;9.23;;;4.53;;
76123;SDS011;65173;48.066;20.976;2023-02-28T14:27:17;9.18;;;5.25;;
76123;SDS011;65173;48.066;20.976;2023-02-28T14:37:04;6.45;;;4.25;;
76123;SDS011;65173;48.066;20.976;2023-02-28T14:43:47;7.33;;;4.33;;
76123;SDS011;65173;48.066;20.976;2023-02-28T14:47:01;8.55;;;4.38;;
76123;SDS011;65173;48.066;20.976;2023-02-28T14:50:17;9.93;;;4.75;;
76123;SDS011;65173;48.066;20.976;2023-02-28T14:53:26;9.32;;;4.22;;
76123;SDS011;65173;48.066;20.976;2023-02-28T14:59:39;17.25;;;7.55;;
76123;SDS011;65173;48.066;20.976;2023-02-28T15:02:42;9.15;;;5.13;;
76123;SDS011;65173;48.066;20.976;2023-02-28T15:05:53;10.57;;;4.73;;
76123;SDS011;65173;48.066;20.976;2023-02-28T15:12:32;7.65;;;3.90;;
76123;SDS011;65173;48.066;20.976;2023-02-28T15:19:05;9.50;;;4.30;;
76123;SDS011;65173;48.066;20.976;2023-02-28T15:22:33;10.02;;;4.70;;
76123;SDS011;65173;48.066;20.976;2023-02-28T15:25:39;9.65;;;5.80;;
76123;SDS011;65173;48.066;20.976;2023-02-28T15:28:43;10.57;;;5.45;;
76123;SDS011;65173;48.066;20.976;2023-02-28T15:31:48;8.15;;;4.85;;
76123;SDS011;65173;48.066;20.976;2023-02-28T15:34:59;8.70;;;5.15;;
76123;SDS011;65173;48.066;20.976;2023-02-28T15:38:26;12.20;;;7.27;;
76123;SDS011;65173;48.066;20.976;2023-02-28T15:41:30;11.45;;;7.00;;
76123;SDS011;65173;48.066;20.976;2023-02-28T15:44:41;13.95;;;7.30;;
76123;SDS011;65173;48.066;20.976;2023-02-28T15:47:45;9.87;;;4.93;;
76123;SDS011;65173;48.066;20.976;2023-02-28T15:50:50;8.07;;;4.60;;
76123;SDS011;65173;48.066;20.976;2023-02-28T15:53:57;10.25;;;5.75;;
76123;SDS011;65173;48.066;20.976;2023-02-28T15:57:04;41.58;;;17.17;;
76123;SDS011;65173;48.066;20.976;2023-02-28T16:00:15;43.13;;;17.58;;
76123;SDS011;65173;48.066;20.976;2023-02-28T16:03:27;18.90;;;10.10;;
76123;SDS011;65173;48.066;20.976;2023-02-28T16:10:06;18.03;;;11.00;;
76123;SDS011;65173;48.066;20.976;2023-02-28T16:13:15;17.65;;;10.80;;
76123;SDS011;65173;48.066;20.976;2023-02-28T16:16:19;17.05;;;9.77;;
76123;SDS011;65173;48.066;20.976;2023-02-28T16:19:23;19.93;;;10.23;;
76123;SDS011;65173;48.066;20.976;2023-02-28T16:22:26;12.35;;;7.40;;
76123;SDS011;65173;48.066;20.976;2023-02-28T16:25:36;22.05;;;11.30;;
76123;SDS011;65173;48.066;20.976;2023-02-28T16:28:41;28.40;;;14.77;;
76123;SDS011;65173;48.066;20.976;2023-02-28T16:31:45;25.10;;;13.18;;
76123;SDS011;65173;48.066;20.976;2023-02-28T16:34:49;25.00;;;14.60;;
76123;SDS011;65173;48.066;20.976;2023-02-28T16:37:52;26.13;;;14.43;;
76123;SDS011;65173;48.066;20.976;2023-02-28T16:40:55;31.90;;;16.67;;
76123;SDS011;65173;48.066;20.976;2023-02-28T16:44:02;37.90;;;20.48;;
76123;SDS011;65173;48.066;20.976;2023-02-28T16:47:12;26.92;;;14.02;;
76123;SDS011;65173;48.066;20.976;2023-02-28T16:50:26;22.27;;;13.90;;
76123;SDS011;65173;48.066;20.976;2023-02-28T16:53:30;34.13;;;18.40;;
76123;SDS011;65173;48.066;20.976;2023-02-28T16:56:34;35.40;;;17.30;;
76123;SDS011;65173;48.066;20.976;2023-02-28T16:59:37;39.42;;;18.70;;
76123;SDS011;65173;48.066;20.976;2023-02-28T17:02:41;40.05;;;19.05;;
76123;SDS011;65173;48.066;20.976;2023-02-28T17:05:44;35.45;;;17.33;;
76123;SDS011;65173;48.066;20.976;2023-02-28T17:08:48;38.67;;;18.80;;
76123;SDS011;65173;48.066;20.976;2023-02-28T17:11:52;33.67;;;17.80;;
76123;SDS011;65173;48.066;20.976;2023-02-28T17:14:55;38.78;;;18.13;;
76123;SDS011;65173;48.066;20.976;2023-02-28T17:17:58;36.55;;;16.88;;
76123;SDS011;65173;48.066;20.976;2023-02-28T17:21:04;34.83;;;15.60;;
76123;SDS011;65173;48.066;20.976;2023-02-28T17:24:15;45.78;;;21.52;;
76123;SDS011;65173;48.066;20.976;2023-02-28T17:27:31;48.45;;;20.83;;
76123;SDS011;65173;48.066;20.976;2023-02-28T17:30:34;32.58;;;14.70;;
76123;SDS011;65173;48.066;20.976;2023-02-28T17:33:37;34.63;;;14.40;;
76123;SDS011;65173;48.066;20.976;2023-02-28T17:36:41;29.00;;;14.18;;
76123;SDS011;65173;48.066;20.976;2023-02-28T17:39:43;30.15;;;15.15;;
76123;SDS011;65173;48.066;20.976;2023-02-28T17:42:47;33.60;;;15.33;;
76123;SDS011;65173;48.066;20.976;2023-02-28T17:45:50;38.15;;;18.42;;
76123;SDS011;65173;48.066;20.976;2023-02-28T17:48:53;34.33;;;14.90;;
76123;SDS011;65173;48.066;20.976;2023-02-28T17:51:56;31.63;;;14.23;;
76123;SDS011;65173;48.066;20.976;2023-02-28T17:54:59;35.22;;;16.67;;
76123;SDS011;65173;48.066;20.976;2023-02-28T17:58:03;32.63;;;15.57;;
76123;SDS011;65173;48.066;20.976;2023-02-28T18:01:06;25.88;;;10.80;;
76123;SDS011;65173;48.066;20.976;2023-02-28T18:04:09;27.80;;;12.07;;
76123;SDS011;65173;48.066;20.976;2023-02-28T18:07:12;28.52;;;11.38;;
76123;SDS011;65173;48.066;20.976;2023-02-28T18:10:16;28.85;;;10.93;;
76123;SDS011;65173;48.066;20.976;2023-02-28T18:13:23;35.77;;;12.87;;
76123;SDS011;65173;48.066;20.976;2023-02-28T18:16:26;31.83;;;11.98;;
76123;SDS011;65173;48.066;20.976;2023-02-28T18:19:30;37.80;;;15.10;;
76123;SDS011;65173;48.066;20.976;2023-02-28T18:22:34;40.57;;;15.93;;
76123;SDS011;65173;48.066;20.976;2023-02-28T18:25:39;58.90;;;23.40;;
76123;SDS011;65173;48.066;20.976;2023-02-28T18:28:43;81.97;;;32.58;;
76123;SDS011;65173;48.066;20.976;2023-02-28T18:31:48;96.28;;;38.38;;
76123;SDS011;65173;48.066;20.976;2023-02-28T18:34:51;103.68;;;40.72;;
76123;SDS011;65173;48.066;20.976;2023-02-28T18:37:54;107.80;;;40.45;;
76123;SDS011;65173;48.066;20.976;2023-02-28T18:40:58;86.88;;;36.55;;
76123;SDS011;65173;48.066;20.976;2023-02-28T18:44:04;79.67;;;37.63;;
76123;SDS011;65173;48.066;20.976;2023-02-28T18:47:20;79.22;;;36.08;;
76123;SDS011;65173;48.066;20.976;2023-02-28T18:50:25;71.45;;;34.92;;
76123;SDS011;65173;48.066;20.976;2023-02-28T18:53:28;81.60;;;33.93;;
76123;SDS011;65173;48.066;20.976;2023-02-28T18:56:32;64.22;;;30.48;;
76123;SDS011;65173;48.066;20.976;2023-02-28T18:59:35;71.85;;;32.40;;
76123;SDS011;65173;48.066;20.976;2023-02-28T19:02:38;90.43;;;42.20;;
76123;SDS011;65173;48.066;20.976;2023-02-28T19:05:42;127.85;;;56.78;;
76123;SDS011;65173;48.066;20.976;2023-02-28T19:08:46;121.43;;;49.88;;
76123;SDS011;65173;48.066;20.976;2023-02-28T19:11:52;143.27;;;52.22;;
76123;SDS011;65173;48.066;20.976;2023-02-28T19:14:55;161.70;;;54.77;;
76123;SDS011;65173;48.066;20.976;2023-02-28T19:17:58;125.78;;;44.13;;
76123;SDS011;65173;48.066;20.976;2023-02-28T19:21:01;94.80;;;40.47;;
76123;SDS011;65173;48.066;20.976;2023-02-28T19:24:05;93.17;;;38.73;;
76123;SDS011;65173;48.066;20.976;2023-02-28T19:27:11;106.05;;;42.33;;
76123;SDS011;65173;48.066;20.976;2023-02-28T19:30:15;111.82;;;45.80;;
76123;SDS011;65173;48.066;20.976;2023-02-28T19:33:19;129.05;;;53.38;;
76123;SDS011;65173;48.066;20.976;2023-02-28T19:36:23;115.30;;;48.60;;
76123;SDS011;65173;48.066;20.976;2023-02-28T19:39:26;123.63;;;48.78;;
76123;SDS011;65173;48.066;20.976;2023-02-28T19:42:29;101.07;;;41.53;;
76123;SDS011;65173;48.066;20.976;2023-02-28T19:45:36;79.10;;;35.13;;
76123;SDS011;65173;48.066;20.976;2023-02-28T19:48:39;77.72;;;37.65;;
76123;SDS011;65173;48.066;20.976;2023-02-28T19:51:44;66.75;;;29.73;;
76123;SDS011;65173;48.066;20.976;2023-02-28T19:54:48;79.67;;;34.80;;
76123;SDS011;65173;48.066;20.976;2023-02-28T19:57:51;114.07;;;43.45;;
76123;SDS011;65173;48.066;20.976;2023-02-28T20:00:55;109.43;;;47.88;;
76123;SDS011;65173;48.066;20.976;2023-02-28T20:03:58;103.90;;;44.22;;
76123;SDS011;65173;48.066;20.976;2023-02-28T20:07:03;121.13;;;48.28;;
76123;SDS011;65173;48.066;20.976;2023-02-28T20:10:07;103.03;;;41.58;;
76123;SDS011;65173;48.066;20.976;2023-02-28T20:13:15;68.00;;;28.75;;
76123;SDS011;65173;48.066;20.976;2023-02-28T20:16:19;57.23;;;25.17;;
76123;SDS011;65173;48.066;20.976;2023-02-28T20:19:22;49.45;;;22.80;;
76123;SDS011;65173;48.066;20.976;2023-02-28T20:22:26;50.42;;;23.00;;
76123;SDS011;65173;48.066;20.976;2023-02-28T20:25:29;49.97;;;22.67;;
76123;SDS011;65173;48.066;20.976;2023-02-28T20:28:34;75.00;;;30.77;;
76123;SDS011;65173;48.066;20.976;2023-02-28T20:31:37;65.55;;;27.67;;
76123;SDS011;65173;48.066;20.976;2023-02-28T20:34:41;106.13;;;41.80;;
76123;SDS011;65173;48.066;20.976;2023-02-28T20:37:44;54.50;;;22.33;;
76123;SDS011;65173;48.066;20.976;2023-02-28T20:40:48;34.42;;;16.58;;
76123;SDS011;65173;48.066;20.976;2023-02-28T20:43:56;24.85;;;11.75;;